Smithfield, Johnston County Airport (KJNX)

NameJohnston County Airport
CitySmithfield
CountryUnited States
ICAOKJNX
IATA
Altitude50 m
CoordinatesGoogle Map
Live Air TrafficLiveATC.net
METARKJNX 160915Z AUTO 00000KT 10SM SCT060 BKN080 13/13 A2976 RMK AO2
2019-02-16 09:15:00 Wind: North (0°) 0 m/s - Visibility: 16093.4 m - Temperature: 13 °C - Dew point: 13 °C - Humidity: 100% - Pressure: 1007.79 hPa
Statistics

The table below shows the detailed information of all flights to/from Smithfield, Johnston County Airport (KJNX).